sensor_id;sensor_type;location;lat;lon;timestamp;temperature;humidity
3478;DHT22;37937;61.490;23.506;2023-06-04T00:00:44;8.10;99.90
3478;DHT22;37937;61.490;23.506;2023-06-04T00:03:10;8.20;99.90
3478;DHT22;37937;61.490;23.506;2023-06-04T00:05:36;8.10;99.90
3478;DHT22;37937;61.490;23.506;2023-06-04T00:08:01;8.10;99.90
3478;DHT22;37937;61.490;23.506;2023-06-04T00:10:27;8.10;99.90
3478;DHT22;37937;61.490;23.506;2023-06-04T00:12:52;8.10;99.90
3478;DHT22;37937;61.490;23.506;2023-06-04T00:15:18;8.10;99.90
3478;DHT22;37937;61.490;23.506;2023-06-04T00:17:44;8.10;99.90
3478;DHT22;37937;61.490;23.506;2023-06-04T00:20:10;8.10;99.90
3478;DHT22;37937;61.490;23.506;2023-06-04T00:22:36;8.10;99.90
3478;DHT22;37937;61.490;23.506;2023-06-04T00:25:01;8.10;99.90
3478;DHT22;37937;61.490;23.506;2023-06-04T00:27:27;8.10;99.90
3478;DHT22;37937;61.490;23.506;2023-06-04T00:29:53;8.10;99.90
3478;DHT22;37937;61.490;23.506;2023-06-04T00:32:18;8.10;99.90
3478;DHT22;37937;61.490;23.506;2023-06-04T00:34:49;8.10;99.90
3478;DHT22;37937;61.490;23.506;2023-06-04T00:37:15;8.00;99.90
3478;DHT22;37937;61.490;23.506;2023-06-04T00:39:41;8.10;99.90
3478;DHT22;37937;61.490;23.506;2023-06-04T00:42:06;8.10;99.90
3478;DHT22;37937;61.490;23.506;2023-06-04T00:44:32;8.20;99.90
3478;DHT22;37937;61.490;23.506;2023-06-04T00:46:58;8.10;99.90
3478;DHT22;37937;61.490;23.506;2023-06-04T00:49:24;8.10;99.90
3478;DHT22;37937;61.490;23.506;2023-06-04T00:51:50;8.10;99.90
3478;DHT22;37937;61.490;23.506;2023-06-04T00:54:16;8.00;99.90
3478;DHT22;37937;61.490;23.506;2023-06-04T00:56:43;8.10;99.90
3478;DHT22;37937;61.490;23.506;2023-06-04T00:59:09;8.10;99.90
3478;DHT22;37937;61.490;23.506;2023-06-04T01:04:32;8.00;99.90
3478;DHT22;37937;61.490;23.506;2023-06-04T01:06:58;8.00;99.90
3478;DHT22;37937;61.490;23.506;2023-06-04T01:09:28;8.10;99.90
3478;DHT22;37937;61.490;23.506;2023-06-04T01:11:54;7.90;99.90
3478;DHT22;37937;61.490;23.506;2023-06-04T01:14:23;8.00;99.90
3478;DHT22;37937;61.490;23.506;2023-06-04T01:16:52;8.00;99.90
3478;DHT22;37937;61.490;23.506;2023-06-04T01:19:53;8.00;99.90
3478;DHT22;37937;61.490;23.506;2023-06-04T01:24:56;8.00;99.90
3478;DHT22;37937;61.490;23.506;2023-06-04T01:27:24;8.10;99.90
3478;DHT22;37937;61.490;23.506;2023-06-04T01:29:50;8.10;99.90
3478;DHT22;37937;61.490;23.506;2023-06-04T01:32:17;8.10;99.90
3478;DHT22;37937;61.490;23.506;2023-06-04T01:34:43;8.10;99.90
3478;DHT22;37937;61.490;23.506;2023-06-04T01:37:09;8.10;99.90
3478;DHT22;37937;61.490;23.506;2023-06-04T01:39:36;8.10;99.90
3478;DHT22;37937;61.490;23.506;2023-06-04T01:42:02;8.10;99.90
3478;DHT22;37937;61.490;23.506;2023-06-04T01:44:28;8.10;99.90
3478;DHT22;37937;61.490;23.506;2023-06-04T01:46:53;8.10;99.90
3478;DHT22;37937;61.490;23.506;2023-06-04T01:49:19;8.10;99.90
3478;DHT22;37937;61.490;23.506;2023-06-04T01:51:44;8.00;99.90
3478;DHT22;37937;61.490;23.506;2023-06-04T01:54:10;8.00;99.90
3478;DHT22;37937;61.490;23.506;2023-06-04T01:56:36;8.00;99.90
3478;DHT22;37937;61.490;23.506;2023-06-04T01:59:01;8.00;99.90
3478;DHT22;37937;61.490;23.506;2023-06-04T02:01:27;8.00;99.90
3478;DHT22;37937;61.490;23.506;2023-06-04T02:03:53;8.00;99.90
3478;DHT22;37937;61.490;23.506;2023-06-04T02:06:18;8.00;99.90
3478;DHT22;37937;61.490;23.506;2023-06-04T02:08:44;8.00;99.90
3478;DHT22;37937;61.490;23.506;2023-06-04T02:11:10;8.00;99.90
3478;DHT22;37937;61.490;23.506;2023-06-04T02:13:35;8.00;99.90
3478;DHT22;37937;61.490;23.506;2023-06-04T02:16:01;8.00;99.90
3478;DHT22;37937;61.490;23.506;2023-06-04T02:18:27;8.00;99.90
3478;DHT22;37937;61.490;23.506;2023-06-04T02:20:52;8.00;99.90
3478;DHT22;37937;61.490;23.506;2023-06-04T02:23:18;8.10;99.90
3478;DHT22;37937;61.490;23.506;2023-06-04T02:25:44;8.00;99.90
3478;DHT22;37937;61.490;23.506;2023-06-04T02:28:10;8.00;99.90
3478;DHT22;37937;61.490;23.506;2023-06-04T02:30:36;8.10;99.90
3478;DHT22;37937;61.490;23.506;2023-06-04T02:33:02;8.10;99.90
3478;DHT22;37937;61.490;23.506;2023-06-04T02:35:30;8.10;99.90
3478;DHT22;37937;61.490;23.506;2023-06-04T02:37:55;8.10;99.90
3478;DHT22;37937;61.490;23.506;2023-06-04T02:40:24;8.20;99.90
3478;DHT22;37937;61.490;23.506;2023-06-04T02:42:51;8.10;99.90
3478;DHT22;37937;61.490;23.506;2023-06-04T02:45:17;8.20;99.90
3478;DHT22;37937;61.490;23.506;2023-06-04T02:47:43;8.20;99.90
3478;DHT22;37937;61.490;23.506;2023-06-04T02:50:08;8.20;99.90
3478;DHT22;37937;61.490;23.506;2023-06-04T02:52:34;8.30;99.90
3478;DHT22;37937;61.490;23.506;2023-06-04T02:55:03;8.40;99.90
3478;DHT22;37937;61.490;23.506;2023-06-04T02:57:29;8.40;99.90
3478;DHT22;37937;61.490;23.506;2023-06-04T02:59:55;8.40;99.90
3478;DHT22;37937;61.490;23.506;2023-06-04T03:02:21;8.40;99.90
3478;DHT22;37937;61.490;23.506;2023-06-04T03:04:46;8.40;99.90
3478;DHT22;37937;61.490;23.506;2023-06-04T03:07:16;8.40;99.90
3478;DHT22;37937;61.490;23.506;2023-06-04T03:09:48;8.40;99.90
3478;DHT22;37937;61.490;23.506;2023-06-04T03:12:14;8.50;99.90
3478;DHT22;37937;61.490;23.506;2023-06-04T03:14:40;8.50;99.90
3478;DHT22;37937;61.490;23.506;2023-06-04T03:17:06;8.50;99.90
3478;DHT22;37937;61.490;23.506;2023-06-04T03:19:38;8.40;99.90
3478;DHT22;37937;61.490;23.506;2023-06-04T03:22:04;8.40;99.90
3478;DHT22;37937;61.490;23.506;2023-06-04T03:24:33;8.50;99.90
3478;DHT22;37937;61.490;23.506;2023-06-04T03:27:00;8.60;99.90
3478;DHT22;37937;61.490;23.506;2023-06-04T03:29:26;8.60;99.90
3478;DHT22;37937;61.490;23.506;2023-06-04T03:31:52;8.70;99.90
3478;DHT22;37937;61.490;23.506;2023-06-04T03:34:17;8.70;99.90
3478;DHT22;37937;61.490;23.506;2023-06-04T03:36:43;8.70;99.90
3478;DHT22;37937;61.490;23.506;2023-06-04T03:39:09;8.80;99.90
3478;DHT22;37937;61.490;23.506;2023-06-04T03:41:35;8.80;99.90
3478;DHT22;37937;61.490;23.506;2023-06-04T03:44:00;8.80;99.90
3478;DHT22;37937;61.490;23.506;2023-06-04T03:46:26;8.90;99.90
3478;DHT22;37937;61.490;23.506;2023-06-04T03:48:54;8.90;99.90
3478;DHT22;37937;61.490;23.506;2023-06-04T03:51:20;8.80;99.90
3478;DHT22;37937;61.490;23.506;2023-06-04T03:53:46;8.80;99.90
3478;DHT22;37937;61.490;23.506;2023-06-04T03:56:11;8.80;99.90
3478;DHT22;37937;61.490;23.506;2023-06-04T03:58:37;8.70;99.90
3478;DHT22;37937;61.490;23.506;2023-06-04T04:01:02;8.80;99.90
3478;DHT22;37937;61.490;23.506;2023-06-04T04:03:30;8.90;99.90
3478;DHT22;37937;61.490;23.506;2023-06-04T04:05:56;8.90;99.90
3478;DHT22;37937;61.490;23.506;2023-06-04T04:08:23;9.00;99.90
3478;DHT22;37937;61.490;23.506;2023-06-04T04:10:48;9.00;99.90
3478;DHT22;37937;61.490;23.506;2023-06-04T04:13:14;9.00;99.90
3478;DHT22;37937;61.490;23.506;2023-06-04T04:15:39;8.90;99.90
3478;DHT22;37937;61.490;23.506;2023-06-04T04:18:05;9.00;99.90
3478;DHT22;37937;61.490;23.506;2023-06-04T04:20:33;9.00;99.90
3478;DHT22;37937;61.490;23.506;2023-06-04T04:22:59;9.00;99.90
3478;DHT22;37937;61.490;23.506;2023-06-04T04:25:24;9.00;99.90
3478;DHT22;37937;61.490;23.506;2023-06-04T04:27:50;9.00;99.90
3478;DHT22;37937;61.490;23.506;2023-06-04T04:30:16;9.20;99.90
3478;DHT22;37937;61.490;23.506;2023-06-04T04:32:42;9.20;99.90
3478;DHT22;37937;61.490;23.506;2023-06-04T04:35:14;9.20;99.90
3478;DHT22;37937;61.490;23.506;2023-06-04T04:37:44;9.30;99.90
3478;DHT22;37937;61.490;23.506;2023-06-04T04:40:10;9.40;99.90
3478;DHT22;37937;61.490;23.506;2023-06-04T04:42:36;9.50;99.90
3478;DHT22;37937;61.490;23.506;2023-06-04T04:45:01;9.60;99.90
3478;DHT22;37937;61.490;23.506;2023-06-04T04:47:27;9.60;99.90
3478;DHT22;37937;61.490;23.506;2023-06-04T04:49:53;9.60;99.90
3478;DHT22;37937;61.490;23.506;2023-06-04T04:52:18;9.60;99.90
3478;DHT22;37937;61.490;23.506;2023-06-04T04:54:44;9.80;99.90
3478;DHT22;37937;61.490;23.506;2023-06-04T04:57:09;9.90;99.90
3478;DHT22;37937;61.490;23.506;2023-06-04T04:59:35;10.00;99.90
3478;DHT22;37937;61.490;23.506;2023-06-04T05:02:00;9.90;99.90
3478;DHT22;37937;61.490;23.506;2023-06-04T05:04:26;10.10;99.90
3478;DHT22;37937;61.490;23.506;2023-06-04T05:06:52;10.10;99.90
3478;DHT22;37937;61.490;23.506;2023-06-04T05:09:17;10.30;99.90
3478;DHT22;37937;61.490;23.506;2023-06-04T05:11:43;10.30;99.40
3478;DHT22;37937;61.490;23.506;2023-06-04T05:14:09;10.30;98.90
3478;DHT22;37937;61.490;23.506;2023-06-04T05:16:34;10.50;96.50
3478;DHT22;37937;61.490;23.506;2023-06-04T05:19:03;10.50;94.10
3478;DHT22;37937;61.490;23.506;2023-06-04T05:21:29;10.60;92.10
3478;DHT22;37937;61.490;23.506;2023-06-04T05:23:55;10.70;94.40
3478;DHT22;37937;61.490;23.506;2023-06-04T05:26:20;10.60;91.90
3478;DHT22;37937;61.490;23.506;2023-06-04T05:28:53;10.80;92.40
3478;DHT22;37937;61.490;23.506;2023-06-04T05:31:19;10.90;90.80
3478;DHT22;37937;61.490;23.506;2023-06-04T05:33:44;11.00;88.40
3478;DHT22;37937;61.490;23.506;2023-06-04T05:36:10;11.00;88.00
3478;DHT22;37937;61.490;23.506;2023-06-04T05:38:35;11.20;80.00
3478;DHT22;37937;61.490;23.506;2023-06-04T05:41:01;11.50;84.90
3478;DHT22;37937;61.490;23.506;2023-06-04T05:43:27;11.70;73.40
3478;DHT22;37937;61.490;23.506;2023-06-04T05:45:53;11.60;73.30
3478;DHT22;37937;61.490;23.506;2023-06-04T05:48:18;12.00;68.70
3478;DHT22;37937;61.490;23.506;2023-06-04T05:50:44;12.20;61.20
3478;DHT22;37937;61.490;23.506;2023-06-04T05:53:10;12.20;56.20
3478;DHT22;37937;61.490;23.506;2023-06-04T05:55:35;12.20;53.70
3478;DHT22;37937;61.490;23.506;2023-06-04T05:58:01;12.20;54.80
3478;DHT22;37937;61.490;23.506;2023-06-04T06:00:27;12.60;51.00
3478;DHT22;37937;61.490;23.506;2023-06-04T06:02:53;12.90;51.20
3478;DHT22;37937;61.490;23.506;2023-06-04T06:05:18;12.90;50.80
3478;DHT22;37937;61.490;23.506;2023-06-04T06:07:45;13.40;47.70
3478;DHT22;37937;61.490;23.506;2023-06-04T06:10:11;13.40;41.20
3478;DHT22;37937;61.490;23.506;2023-06-04T06:12:37;13.30;41.90
3478;DHT22;37937;61.490;23.506;2023-06-04T06:15:02;13.40;43.20
3478;DHT22;37937;61.490;23.506;2023-06-04T06:17:28;13.90;37.70
3478;DHT22;37937;61.490;23.506;2023-06-04T06:19:54;14.20;36.90
3478;DHT22;37937;61.490;23.506;2023-06-04T06:22:21;14.10;30.10
3478;DHT22;37937;61.490;23.506;2023-06-04T06:24:46;14.00;31.80
3478;DHT22;37937;61.490;23.506;2023-06-04T06:27:15;13.50;29.80
3478;DHT22;37937;61.490;23.506;2023-06-04T06:29:41;13.30;32.80
3478;DHT22;37937;61.490;23.506;2023-06-04T06:32:07;13.30;30.40
3478;DHT22;37937;61.490;23.506;2023-06-04T06:34:33;13.50;27.70
3478;DHT22;37937;61.490;23.506;2023-06-04T06:36:58;14.30;29.00
3478;DHT22;37937;61.490;23.506;2023-06-04T06:39:24;14.50;22.50
3478;DHT22;37937;61.490;23.506;2023-06-04T06:41:50;14.90;18.80
3478;DHT22;37937;61.490;23.506;2023-06-04T06:44:15;15.00;16.10
3478;DHT22;37937;61.490;23.506;2023-06-04T06:46:41;14.50;14.40
3478;DHT22;37937;61.490;23.506;2023-06-04T06:49:06;15.10;15.70
3478;DHT22;37937;61.490;23.506;2023-06-04T06:51:32;15.00;16.20
3478;DHT22;37937;61.490;23.506;2023-06-04T06:53:58;15.10;15.00
3478;DHT22;37937;61.490;23.506;2023-06-04T06:56:23;15.60;13.70
3478;DHT22;37937;61.490;23.506;2023-06-04T06:58:49;15.80;13.40
3478;DHT22;37937;61.490;23.506;2023-06-04T07:01:14;14.70;10.00
3478;DHT22;37937;61.490;23.506;2023-06-04T07:03:40;14.10;8.40
3478;DHT22;37937;61.490;23.506;2023-06-04T07:06:06;13.70;9.10
3478;DHT22;37937;61.490;23.506;2023-06-04T07:08:32;13.80;11.80
3478;DHT22;37937;61.490;23.506;2023-06-04T07:10:58;13.90;8.80
3478;DHT22;37937;61.490;23.506;2023-06-04T07:13:24;13.60;7.90
3478;DHT22;37937;61.490;23.506;2023-06-04T07:15:49;13.50;8.40
3478;DHT22;37937;61.490;23.506;2023-06-04T07:18:15;13.60;7.40
3478;DHT22;37937;61.490;23.506;2023-06-04T07:20:41;13.80;8.00
3478;DHT22;37937;61.490;23.506;2023-06-04T07:23:06;13.70;7.60
3478;DHT22;37937;61.490;23.506;2023-06-04T07:25:33;13.70;6.70
3478;DHT22;37937;61.490;23.506;2023-06-04T07:27:59;13.50;6.70
3478;DHT22;37937;61.490;23.506;2023-06-04T07:30:25;13.40;7.70
3478;DHT22;37937;61.490;23.506;2023-06-04T07:32:50;13.40;9.10
3478;DHT22;37937;61.490;23.506;2023-06-04T07:35:16;13.50;9.50
3478;DHT22;37937;61.490;23.506;2023-06-04T07:37:42;13.30;10.10
3478;DHT22;37937;61.490;23.506;2023-06-04T07:40:11;13.60;11.90
3478;DHT22;37937;61.490;23.506;2023-06-04T07:42:37;13.60;11.50
3478;DHT22;37937;61.490;23.506;2023-06-04T07:45:04;13.80;12.20
3478;DHT22;37937;61.490;23.506;2023-06-04T07:47:30;13.70;10.50
3478;DHT22;37937;61.490;23.506;2023-06-04T07:49:56;13.90;9.90
3478;DHT22;37937;61.490;23.506;2023-06-04T07:52:21;13.90;8.20
3478;DHT22;37937;61.490;23.506;2023-06-04T07:54:48;14.10;7.10
3478;DHT22;37937;61.490;23.506;2023-06-04T07:57:13;14.30;7.10
3478;DHT22;37937;61.490;23.506;2023-06-04T07:59:39;14.20;4.80
3478;DHT22;37937;61.490;23.506;2023-06-04T08:02:05;14.20;6.50
3478;DHT22;37937;61.490;23.506;2023-06-04T08:04:30;14.20;5.10
3478;DHT22;37937;61.490;23.506;2023-06-04T08:06:56;13.90;4.20
3478;DHT22;37937;61.490;23.506;2023-06-04T08:09:22;13.90;4.80
3478;DHT22;37937;61.490;23.506;2023-06-04T08:11:48;13.60;4.40
3478;DHT22;37937;61.490;23.506;2023-06-04T08:14:14;13.90;5.50
3478;DHT22;37937;61.490;23.506;2023-06-04T08:16:40;13.90;4.20
3478;DHT22;37937;61.490;23.506;2023-06-04T08:19:08;14.00;4.00
3478;DHT22;37937;61.490;23.506;2023-06-04T08:21:34;14.30;4.90
3478;DHT22;37937;61.490;23.506;2023-06-04T08:24:00;14.30;2.10
3478;DHT22;37937;61.490;23.506;2023-06-04T08:26:26;14.00;1.00
3478;DHT22;37937;61.490;23.506;2023-06-04T08:28:54;14.00;1.00
3478;DHT22;37937;61.490;23.506;2023-06-04T08:31:20;14.30;2.10
3478;DHT22;37937;61.490;23.506;2023-06-04T08:33:47;14.00;1.20
3478;DHT22;37937;61.490;23.506;2023-06-04T08:36:12;14.10;2.30
3478;DHT22;37937;61.490;23.506;2023-06-04T08:38:38;14.10;1.70
3478;DHT22;37937;61.490;23.506;2023-06-04T08:43:56;14.20;1.20
3478;DHT22;37937;61.490;23.506;2023-06-04T08:46:22;14.60;1.40
3478;DHT22;37937;61.490;23.506;2023-06-04T08:48:48;14.30;1.00
3478;DHT22;37937;61.490;23.506;2023-06-04T08:51:14;14.30;1.00
3478;DHT22;37937;61.490;23.506;2023-06-04T08:53:41;14.30;1.00
3478;DHT22;37937;61.490;23.506;2023-06-04T08:56:07;14.30;1.10
3478;DHT22;37937;61.490;23.506;2023-06-04T08:58:36;14.40;1.00
3478;DHT22;37937;61.490;23.506;2023-06-04T09:01:03;14.50;1.20
3478;DHT22;37937;61.490;23.506;2023-06-04T09:03:28;14.20;1.00
3478;DHT22;37937;61.490;23.506;2023-06-04T09:05:58;14.00;1.80
3478;DHT22;37937;61.490;23.506;2023-06-04T09:08:23;14.10;1.00
3478;DHT22;37937;61.490;23.506;2023-06-04T09:10:50;14.00;2.10
3478;DHT22;37937;61.490;23.506;2023-06-04T09:13:21;14.30;2.20
3478;DHT22;37937;61.490;23.506;2023-06-04T09:15:57;14.60;1.00
3478;DHT22;37937;61.490;23.506;2023-06-04T09:18:24;14.90;1.60
3478;DHT22;37937;61.490;23.506;2023-06-04T09:20:59;14.40;1.00
3478;DHT22;37937;61.490;23.506;2023-06-04T09:23:25;14.70;1.50
3478;DHT22;37937;61.490;23.506;2023-06-04T09:25:50;14.80;1.30
3478;DHT22;37937;61.490;23.506;2023-06-04T09:28:17;14.80;1.00
3478;DHT22;37937;61.490;23.506;2023-06-04T09:30:52;14.50;1.00
3478;DHT22;37937;61.490;23.506;2023-06-04T09:33:18;14.80;1.00
3478;DHT22;37937;61.490;23.506;2023-06-04T09:35:54;14.60;1.00
3478;DHT22;37937;61.490;23.506;2023-06-04T09:38:20;14.80;1.00
3478;DHT22;37937;61.490;23.506;2023-06-04T09:40:46;14.80;1.00
3478;DHT22;37937;61.490;23.506;2023-06-04T09:43:20;14.80;1.00
3478;DHT22;37937;61.490;23.506;2023-06-04T09:45:46;15.00;1.00
3478;DHT22;37937;61.490;23.506;2023-06-04T09:48:18;15.00;1.00
3478;DHT22;37937;61.490;23.506;2023-06-04T09:50:44;14.80;1.00
3478;DHT22;37937;61.490;23.506;2023-06-04T09:53:19;15.20;1.00
3478;DHT22;37937;61.490;23.506;2023-06-04T09:55:57;15.20;1.00
3478;DHT22;37937;61.490;23.506;2023-06-04T09:58:25;15.10;1.00
3478;DHT22;37937;61.490;23.506;2023-06-04T10:00:52;15.10;1.00
3478;DHT22;37937;61.490;23.506;2023-06-04T10:03:19;15.40;1.00
3478;DHT22;37937;61.490;23.506;2023-06-04T10:05:48;15.90;1.00
3478;DHT22;37937;61.490;23.506;2023-06-04T10:08:14;16.10;1.00
3478;DHT22;37937;61.490;23.506;2023-06-04T10:10:42;16.20;1.00
3478;DHT22;37937;61.490;23.506;2023-06-04T10:13:17;16.30;1.00
3478;DHT22;37937;61.490;23.506;2023-06-04T10:15:43;16.30;1.00
3478;DHT22;37937;61.490;23.506;2023-06-04T10:18:09;16.00;1.00
3478;DHT22;37937;61.490;23.506;2023-06-04T10:20:35;15.80;1.00
3478;DHT22;37937;61.490;23.506;2023-06-04T10:23:01;16.00;1.00
3478;DHT22;37937;61.490;23.506;2023-06-04T10:25:27;15.90;1.00
3478;DHT22;37937;61.490;23.506;2023-06-04T10:27:53;15.90;1.00
3478;DHT22;37937;61.490;23.506;2023-06-04T10:30:19;15.80;1.00
3478;DHT22;37937;61.490;23.506;2023-06-04T10:32:44;16.10;1.00
3478;DHT22;37937;61.490;23.506;2023-06-04T10:35:13;15.80;1.00
3478;DHT22;37937;61.490;23.506;2023-06-04T10:37:40;15.60;1.00
3478;DHT22;37937;61.490;23.506;2023-06-04T10:40:05;15.60;1.00
3478;DHT22;37937;61.490;23.506;2023-06-04T10:42:40;15.20;1.00
3478;DHT22;37937;61.490;23.506;2023-06-04T10:45:07;15.50;1.00
3478;DHT22;37937;61.490;23.506;2023-06-04T10:47:32;15.80;1.00
3478;DHT22;37937;61.490;23.506;2023-06-04T10:50:09;15.90;1.00
3478;DHT22;37937;61.490;23.506;2023-06-04T10:52:36;15.70;1.00
3478;DHT22;37937;61.490;23.506;2023-06-04T10:55:04;16.00;1.00
3478;DHT22;37937;61.490;23.506;2023-06-04T10:57:30;16.10;1.00
3478;DHT22;37937;61.490;23.506;2023-06-04T10:59:57;16.30;1.00
3478;DHT22;37937;61.490;23.506;2023-06-04T11:02:23;16.70;1.00
3478;DHT22;37937;61.490;23.506;2023-06-04T11:05:01;16.00;1.00
3478;DHT22;37937;61.490;23.506;2023-06-04T11:07:43;16.00;1.00
3478;DHT22;37937;61.490;23.506;2023-06-04T11:10:13;16.40;1.00
3478;DHT22;37937;61.490;23.506;2023-06-04T11:12:45;16.40;1.00
3478;DHT22;37937;61.490;23.506;2023-06-04T11:15:12;16.50;1.00
3478;DHT22;37937;61.490;23.506;2023-06-04T11:17:38;16.70;1.00
3478;DHT22;37937;61.490;23.506;2023-06-04T11:20:03;16.60;1.00
3478;DHT22;37937;61.490;23.506;2023-06-04T11:22:32;16.60;1.00
3478;DHT22;37937;61.490;23.506;2023-06-04T11:24:58;16.30;1.00
3478;DHT22;37937;61.490;23.506;2023-06-04T11:27:24;16.30;1.00
3478;DHT22;37937;61.490;23.506;2023-06-04T11:29:50;16.50;1.00
3478;DHT22;37937;61.490;23.506;2023-06-04T11:32:25;16.60;1.00
3478;DHT22;37937;61.490;23.506;2023-06-04T11:34:51;17.20;1.00
3478;DHT22;37937;61.490;23.506;2023-06-04T11:37:16;17.00;1.00
3478;DHT22;37937;61.490;23.506;2023-06-04T11:39:42;17.10;1.00
3478;DHT22;37937;61.490;23.506;2023-06-04T11:42:09;16.90;1.00
3478;DHT22;37937;61.490;23.506;2023-06-04T11:44:35;16.90;1.00
3478;DHT22;37937;61.490;23.506;2023-06-04T11:47:04;16.50;1.00
3478;DHT22;37937;61.490;23.506;2023-06-04T11:49:31;16.70;1.00
3478;DHT22;37937;61.490;23.506;2023-06-04T11:51:56;16.20;1.00
3478;DHT22;37937;61.490;23.506;2023-06-04T11:54:22;16.50;1.00
3478;DHT22;37937;61.490;23.506;2023-06-04T11:56:48;16.50;1.00
3478;DHT22;37937;61.490;23.506;2023-06-04T11:59:15;16.40;1.00
3478;DHT22;37937;61.490;23.506;2023-06-04T12:01:41;16.80;1.00
3478;DHT22;37937;61.490;23.506;2023-06-04T12:04:14;16.70;1.00
3478;DHT22;37937;61.490;23.506;2023-06-04T12:06:56;16.10;1.00
3478;DHT22;37937;61.490;23.506;2023-06-04T12:09:27;16.10;1.00
3478;DHT22;37937;61.490;23.506;2023-06-04T12:12:00;15.80;1.00
3478;DHT22;37937;61.490;23.506;2023-06-04T12:14:25;15.40;1.00
3478;DHT22;37937;61.490;23.506;2023-06-04T12:16:58;15.40;1.00
3478;DHT22;37937;61.490;23.506;2023-06-04T12:19:24;15.50;1.00
3478;DHT22;37937;61.490;23.506;2023-06-04T12:22:02;15.50;1.00
3478;DHT22;37937;61.490;23.506;2023-06-04T12:24:29;15.60;1.00
3478;DHT22;37937;61.490;23.506;2023-06-04T12:27:02;15.70;1.00
3478;DHT22;37937;61.490;23.506;2023-06-04T12:29:28;15.50;1.00
3478;DHT22;37937;61.490;23.506;2023-06-04T12:32:01;15.60;1.00
3478;DHT22;37937;61.490;23.506;2023-06-04T12:34:27;15.80;1.00
3478;DHT22;37937;61.490;23.506;2023-06-04T12:36:52;15.80;1.00
3478;DHT22;37937;61.490;23.506;2023-06-04T12:39:18;16.10;1.00
3478;DHT22;37937;61.490;23.506;2023-06-04T12:41:46;16.10;1.00
3478;DHT22;37937;61.490;23.506;2023-06-04T12:44:12;16.00;1.00
3478;DHT22;37937;61.490;23.506;2023-06-04T12:46:38;16.40;1.00
3478;DHT22;37937;61.490;23.506;2023-06-04T12:49:03;16.30;1.00
3478;DHT22;37937;61.490;23.506;2023-06-04T12:51:29;16.20;1.00
3478;DHT22;37937;61.490;23.506;2023-06-04T12:53:54;16.40;1.00
3478;DHT22;37937;61.490;23.506;2023-06-04T12:56:20;16.10;1.00
3478;DHT22;37937;61.490;23.506;2023-06-04T12:58:47;16.00;1.00
3478;DHT22;37937;61.490;23.506;2023-06-04T13:01:12;15.90;1.00
3478;DHT22;37937;61.490;23.506;2023-06-04T13:03:39;15.50;1.00
3478;DHT22;37937;61.490;23.506;2023-06-04T13:06:05;15.50;1.00
3478;DHT22;37937;61.490;23.506;2023-06-04T13:08:31;15.20;1.00
3478;DHT22;37937;61.490;23.506;2023-06-04T13:10:57;15.40;1.00
3478;DHT22;37937;61.490;23.506;2023-06-04T13:13:22;15.20;1.00
3478;DHT22;37937;61.490;23.506;2023-06-04T13:15:48;15.30;1.00
3478;DHT22;37937;61.490;23.506;2023-06-04T13:18:14;15.30;1.00
3478;DHT22;37937;61.490;23.506;2023-06-04T13:20:40;15.20;1.00
3478;DHT22;37937;61.490;23.506;2023-06-04T13:23:06;15.50;1.00
3478;DHT22;37937;61.490;23.506;2023-06-04T13:25:32;15.40;1.00
3478;DHT22;37937;61.490;23.506;2023-06-04T13:28:00;15.60;1.00
3478;DHT22;37937;61.490;23.506;2023-06-04T13:30:26;15.70;1.00
3478;DHT22;37937;61.490;23.506;2023-06-04T13:32:52;15.70;1.00
3478;DHT22;37937;61.490;23.506;2023-06-04T13:35:18;16.20;1.00
3478;DHT22;37937;61.490;23.506;2023-06-04T13:37:44;16.30;1.00
3478;DHT22;37937;61.490;23.506;2023-06-04T13:40:09;16.10;1.00
3478;DHT22;37937;61.490;23.506;2023-06-04T13:42:35;16.00;1.00
3478;DHT22;37937;61.490;23.506;2023-06-04T13:45:01;15.90;1.00
3478;DHT22;37937;61.490;23.506;2023-06-04T13:47:26;16.10;1.00
3478;DHT22;37937;61.490;23.506;2023-06-04T13:49:52;16.20;1.00
3478;DHT22;37937;61.490;23.506;2023-06-04T13:52:18;16.10;1.00
3478;DHT22;37937;61.490;23.506;2023-06-04T13:54:43;16.00;1.00
3478;DHT22;37937;61.490;23.506;2023-06-04T13:57:09;15.50;1.00
3478;DHT22;37937;61.490;23.506;2023-06-04T13:59:38;15.60;1.00
3478;DHT22;37937;61.490;23.506;2023-06-04T14:02:03;15.70;1.00
3478;DHT22;37937;61.490;23.506;2023-06-04T14:04:29;15.90;1.00
3478;DHT22;37937;61.490;23.506;2023-06-04T14:06:55;15.90;1.00
3478;DHT22;37937;61.490;23.506;2023-06-04T14:09:21;16.00;1.00
3478;DHT22;37937;61.490;23.506;2023-06-04T14:11:46;16.10;1.00
3478;DHT22;37937;61.490;23.506;2023-06-04T14:14:17;15.90;1.00
3478;DHT22;37937;61.490;23.506;2023-06-04T14:16:46;15.80;1.00
3478;DHT22;37937;61.490;23.506;2023-06-04T14:19:12;15.70;1.00
3478;DHT22;37937;61.490;23.506;2023-06-04T14:21:37;16.10;1.00
3478;DHT22;37937;61.490;23.506;2023-06-04T14:24:03;15.80;1.00
3478;DHT22;37937;61.490;23.506;2023-06-04T14:26:29;15.40;1.00
3478;DHT22;37937;61.490;23.506;2023-06-04T14:28:55;15.30;1.00
3478;DHT22;37937;61.490;23.506;2023-06-04T14:31:20;15.30;1.00
3478;DHT22;37937;61.490;23.506;2023-06-04T14:33:46;15.50;1.00
3478;DHT22;37937;61.490;23.506;2023-06-04T14:36:11;15.10;1.00
3478;DHT22;37937;61.490;23.506;2023-06-04T14:38:37;15.20;1.00
3478;DHT22;37937;61.490;23.506;2023-06-04T14:41:03;15.30;1.00
3478;DHT22;37937;61.490;23.506;2023-06-04T14:43:29;15.40;1.00
3478;DHT22;37937;61.490;23.506;2023-06-04T14:45:54;15.30;1.00
3478;DHT22;37937;61.490;23.506;2023-06-04T14:48:20;15.20;1.00
3478;DHT22;37937;61.490;23.506;2023-06-04T14:50:46;15.00;1.00
3478;DHT22;37937;61.490;23.506;2023-06-04T14:53:14;15.00;1.00
3478;DHT22;37937;61.490;23.506;2023-06-04T14:55:40;15.00;1.00
3478;DHT22;37937;61.490;23.506;2023-06-04T14:58:06;15.00;1.00
3478;DHT22;37937;61.490;23.506;2023-06-04T15:00:31;15.20;1.00
3478;DHT22;37937;61.490;23.506;2023-06-04T15:02:57;15.00;1.00
3478;DHT22;37937;61.490;23.506;2023-06-04T15:05:23;14.90;1.00
3478;DHT22;37937;61.490;23.506;2023-06-04T15:07:48;14.90;1.00
3478;DHT22;37937;61.490;23.506;2023-06-04T15:10:14;15.00;1.00
3478;DHT22;37937;61.490;23.506;2023-06-04T15:12:40;14.90;1.00
3478;DHT22;37937;61.490;23.506;2023-06-04T15:15:06;15.00;1.00
3478;DHT22;37937;61.490;23.506;2023-06-04T15:17:32;14.80;1.00
3478;DHT22;37937;61.490;23.506;2023-06-04T15:19:57;14.90;1.00
3478;DHT22;37937;61.490;23.506;2023-06-04T15:22:23;15.00;1.00
3478;DHT22;37937;61.490;23.506;2023-06-04T15:24:50;15.10;1.00
3478;DHT22;37937;61.490;23.506;2023-06-04T15:27:15;15.20;1.00
3478;DHT22;37937;61.490;23.506;2023-06-04T15:29:41;15.30;1.00
3478;DHT22;37937;61.490;23.506;2023-06-04T15:32:06;15.20;1.00
3478;DHT22;37937;61.490;23.506;2023-06-04T15:34:32;15.00;1.00
3478;DHT22;37937;61.490;23.506;2023-06-04T15:36:57;15.10;1.00
3478;DHT22;37937;61.490;23.506;2023-06-04T15:39:23;15.20;1.00
3478;DHT22;37937;61.490;23.506;2023-06-04T15:41:49;15.10;1.00
3478;DHT22;37937;61.490;23.506;2023-06-04T15:44:14;15.10;1.00
3478;DHT22;37937;61.490;23.506;2023-06-04T15:46:40;15.10;1.00
3478;DHT22;37937;61.490;23.506;2023-06-04T15:49:05;15.20;1.00